Time;durP1;ratioP1;P1;durP2;ratioP2;P2;SDS_P1;SDS_P2;PMS_P1;PMS_P2;Temp;Humidity;BMP_temperature;BMP_pressure;BME280_temperature;BME280_humidity;BME280_pressure;Samples;Min_cycle;Max_cycle;Signal;HPM_P1;HPM_P2
2021/11/02 00:01:46;;;;;;;1.80;0.70;;;12.80;73.70;;;;;;2577663;53;21113;-69
2021/11/02 00:04:12;;;;;;;2.08;0.70;;;12.80;73.60;;;;;;2577743;53;21859;-69
2021/11/02 00:06:40;;;;;;;1.20;0.50;;;12.80;73.40;;;;;;2583894;53;21029;-69
2021/11/02 00:09:09;;;;;;;2.05;0.60;;;12.80;73.30;;;;;;2344862;53;21017;-69
2021/11/02 00:11:35;;;;;;;1.42;0.50;;;12.80;73.30;;;;;;2578884;53;21020;-69
2021/11/02 00:14:08;;;;;;;3.40;0.70;;;12.80;73.30;;;;;;2341554;53;21038;-69
2021/11/02 00:16:37;;;;;;;1.27;0.50;;;12.80;73.20;;;;;;2347676;53;21018;-69
2021/11/02 00:19:06;;;;;;;1.17;0.40;;;12.80;73.20;;;;;;2584256;53;20990;-69
2021/11/02 00:21:35;;;;;;;1.48;0.60;;;12.80;73.30;;;;;;2352195;53;21013;-69
2021/11/02 00:26:47;;;;;;;1.83;0.60;;;12.80;73.30;;;;;;2583016;53;21495;-69
2021/11/02 00:29:13;;;;;;;2.78;0.70;;;12.80;73.30;;;;;;2346755;53;21042;-69
2021/11/02 00:31:40;;;;;;;2.22;0.60;;;12.80;73.30;;;;;;2343184;53;21022;-69
2021/11/02 00:34:06;;;;;;;1.20;0.50;;;12.80;73.30;;;;;;2575518;52;21700;-69
2021/11/02 00:36:32;;;;;;;1.85;0.57;;;12.70;73.20;;;;;;2581791;53;21054;-69
2021/11/02 00:38:59;;;;;;;2.90;0.80;;;12.70;73.30;;;;;;2345336;53;20928;-69
2021/11/02 00:41:25;;;;;;;1.30;0.50;;;12.80;73.40;;;;;;2348808;53;20962;-69
2021/11/02 00:43:55;;;;;;;3.05;0.60;;;12.80;73.40;;;;;;2582424;53;21510;-69
2021/11/02 00:46:30;;;;;;;1.80;0.60;;;12.80;73.50;;;;;;2345135;53;21066;-69
2021/11/02 00:48:58;;;;;;;1.92;0.50;;;12.80;73.60;;;;;;2324216;53;21051;-69
2021/11/02 00:51:24;;;;;;;1.08;0.40;;;12.80;73.60;;;;;;2350217;53;21002;-69
2021/11/02 00:53:51;;;;;;;3.22;0.60;;;12.80;73.50;;;;;;2344371;53;21047;-69
2021/11/02 00:56:17;;;;;;;2.62;0.70;;;12.80;73.50;;;;;;2570668;53;20978;-69
2021/11/02 00:58:43;;;;;;;1.75;0.55;;;12.80;73.40;;;;;;2355481;53;20978;-69
2021/11/02 01:01:13;;;;;;;2.37;0.60;;;12.80;73.40;;;;;;2349978;53;20932;-69
2021/11/02 01:03:39;;;;;;;3.72;0.70;;;12.80;73.40;;;;;;2553010;53;21481;-69
2021/11/02 01:06:06;;;;;;;2.08;0.65;;;12.80;73.30;;;;;;2347414;53;21097;-69
2021/11/02 01:08:32;;;;;;;1.55;0.68;;;12.80;73.30;;;;;;2346006;53;20982;-69
2021/11/02 01:10:59;;;;;;;2.20;0.50;;;12.80;73.40;;;;;;2583527;52;20994;-69
2021/11/02 01:13:29;;;;;;;1.67;0.62;;;12.80;73.30;;;;;;2346499;53;21067;-69
2021/11/02 01:16:06;;;;;;;2.20;0.60;;;12.80;73.30;;;;;;2346515;53;21374;-69
2021/11/02 01:18:33;;;;;;;2.15;0.60;;;12.80;73.30;;;;;;2583467;53;21023;-69
2021/11/02 01:21:00;;;;;;;2.75;0.75;;;12.90;73.40;;;;;;2585528;53;21088;-69
2021/11/02 01:23:26;;;;;;;2.47;0.80;;;12.80;74.00;;;;;;2348657;53;20966;-69
2021/11/02 01:25:53;;;;;;;3.75;0.70;;;12.80;73.30;;;;;;2581509;53;20986;-69
2021/11/02 01:28:19;;;;;;;2.67;0.70;;;12.80;73.30;;;;;;2350610;53;20958;-69
2021/11/02 01:30:49;;;;;;;2.35;0.62;;;12.80;73.30;;;;;;2346848;53;20956;-69
2021/11/02 01:33:15;;;;;;;1.73;0.60;;;12.80;73.20;;;;;;2345091;53;21711;-69
2021/11/02 01:35:42;;;;;;;3.17;0.70;;;12.80;73.00;;;;;;2345921;53;20934;-69
2021/11/02 01:38:09;;;;;;;2.62;0.70;;;12.80;72.90;;;;;;2345734;53;20940;-69
2021/11/02 01:40:36;;;;;;;1.58;0.60;;;12.80;73.00;;;;;;2586916;53;20966;-69
2021/11/02 01:43:02;;;;;;;3.10;0.80;;;12.80;72.90;;;;;;2348436;53;21520;-69
2021/11/02 01:45:44;;;;;;;1.42;0.50;;;12.80;72.90;;;;;;2585991;53;20969;-69
2021/11/02 01:48:15;;;;;;;0.98;0.47;;;12.80;72.40;;;;;;2585808;53;20994;-69
2021/11/02 01:50:43;;;;;;;0.90;0.35;;;12.80;72.80;;;;;;2345795;53;21336;-69
2021/11/02 01:53:11;;;;;;;1.87;0.60;;;12.80;72.90;;;;;;2340959;53;21025;-69
2021/11/02 01:55:37;;;;;;;1.45;0.60;;;12.70;72.70;;;;;;2347563;53;21070;-69
2021/11/02 01:58:03;;;;;;;3.35;0.90;;;12.70;72.60;;;;;;2581152;53;20974;-69
2021/11/02 02:00:30;;;;;;;0.80;0.40;;;12.70;72.60;;;;;;2341340;53;20989;-69
2021/11/02 02:03:08;;;;;;;2.33;0.50;;;12.70;72.60;;;;;;2348159;53;21983;-69
2021/11/02 02:07:15;;;;;;;2.78;0.60;;;12.70;72.60;;;;;;2574582;52;21747;-69
2021/11/02 02:11:35;;;;;;;2.15;0.47;;;12.70;72.40;;;;;;2328200;53;21055;-69
2021/11/02 02:14:22;;;;;;;1.25;0.40;;;12.70;71.80;;;;;;2349208;53;21569;-69
2021/11/02 02:16:50;;;;;;;1.92;0.43;;;12.60;72.60;;;;;;2354488;53;20950;-69
2021/11/02 02:24:30;;;;;;;1.52;0.47;;;12.60;72.70;;;;;;2586385;53;21018;-69
2021/11/02 02:27:32;;;;;;;0.73;0.30;;;12.60;72.60;;;;;;2351716;53;20993;-69
2021/11/02 02:29:59;;;;;;;2.20;0.30;;;12.60;72.10;;;;;;2341107;53;21050;-69
2021/11/02 02:32:26;;;;;;;0.80;0.37;;;12.60;72.50;;;;;;2351664;53;20954;-69
2021/11/02 02:34:55;;;;;;;0.80;0.30;;;12.60;72.50;;;;;;2559923;53;22391;-69
2021/11/02 02:37:22;;;;;;;0.85;0.40;;;12.50;72.40;;;;;;2343067;53;21396;-69
2021/11/02 02:39:49;;;;;;;1.92;0.40;;;12.50;72.30;;;;;;2346752;53;21183;-69
2021/11/02 02:42:16;;;;;;;0.77;0.30;;;12.50;72.30;;;;;;2349550;53;21007;-69
2021/11/02 02:44:45;;;;;;;0.60;0.30;;;12.40;72.30;;;;;;2341477;53;20955;-69
2021/11/02 02:47:11;;;;;;;1.05;0.40;;;12.40;72.30;;;;;;2584019;52;21890;-69
2021/11/02 02:49:38;;;;;;;1.20;0.40;;;12.40;72.40;;;;;;2344807;53;20910;-69
2021/11/02 02:52:07;;;;;;;1.05;0.30;;;12.40;72.50;;;;;;2585084;53;21036;-69
2021/11/02 02:54:34;;;;;;;1.20;0.40;;;12.40;72.60;;;;;;2337562;53;21488;-69
2021/11/02 02:57:03;;;;;;;0.47;0.30;;;12.40;72.70;;;;;;2587099;53;20954;-69
2021/11/02 02:59:29;;;;;;;1.00;0.40;;;12.40;72.80;;;;;;2348217;53;21030;-69
2021/11/02 03:01:56;;;;;;;0.93;0.30;;;12.40;72.80;;;;;;2349474;53;21069;-69
2021/11/02 03:04:26;;;;;;;0.82;0.40;;;12.40;72.80;;;;;;2344291;53;20891;-69
2021/11/02 03:06:59;;;;;;;2.35;0.35;;;12.40;72.90;;;;;;2346968;53;21789;-69
2021/11/02 03:09:26;;;;;;;0.50;0.30;;;12.30;72.70;;;;;;2356923;53;21853;-69
2021/11/02 03:11:53;;;;;;;0.62;0.30;;;12.30;72.80;;;;;;2347224;53;20982;-69
2021/11/02 03:14:30;;;;;;;0.50;0.30;;;12.30;72.80;;;;;;2349175;53;20937;-69
2021/11/02 03:17:04;;;;;;;1.42;0.30;;;12.30;72.60;;;;;;2354849;53;21034;-69
2021/11/02 03:20:07;;;;;;;0.62;0.30;;;12.30;72.60;;;;;;2587119;53;21006;-69
2021/11/02 03:49:10;;;;;;;0.32;0.22;;;12.10;72.10;;;;;;2575584;53;20993;-69
2021/11/02 04:31:31;;;;;;;0.85;0.30;;;11.80;72.70;;;;;;2318131;53;20961;-69
2021/11/02 04:45:03;;;;;;;0.77;0.40;;;11.80;72.70;;;;;;2307250;53;20950;-69
2021/11/02 04:48:06;;;;;;;2.45;0.60;;;11.80;72.80;;;;;;2327806;53;20968;-69
2021/11/02 05:07:52;;;;;;;2.33;0.50;;;11.80;73.20;;;;;;2562334;53;21044;-69
2021/11/02 05:46:43;;;;;;;1.37;0.50;;;11.80;73.00;;;;;;2343745;53;21089;-69
2021/11/02 09:38:30;;;;;;;7.85;4.50;;;11.80;73.00;;;;;;2559807;53;22751;-69
2021/11/02 09:41:31;;;;;;;4.20;2.50;;;12.30;74.40;;;;;;2305289;54;21051;-70
2021/11/02 09:46:16;;;;;;;2.75;1.40;;;12.30;74.50;;;;;;2289668;54;21586;-70
2021/11/02 09:53:18;;;;;;;3.75;1.10;;;12.40;74.30;;;;;;2320923;53;20947;-70
2021/11/02 09:58:40;;;;;;;2.08;0.60;;;12.50;75.20;;;;;;2325407;53;20937;-70
2021/11/02 10:01:31;;;;;;;1.85;0.50;;;12.60;75.10;;;;;;2320731;53;21005;-70
2021/11/02 10:07:49;;;;;;;1.08;0.45;;;12.70;75.10;;;;;;2315615;54;20979;-70
2021/11/02 10:10:25;;;;;;;1.17;0.40;;;12.70;75.10;;;;;;2324163;54;20995;-70
2021/11/02 10:13:24;;;;;;;2.72;0.60;;;12.80;75.60;;;;;;2305028;53;20994;-71
2021/11/02 10:16:04;;;;;;;1.17;0.50;;;12.90;75.60;;;;;;2589872;53;21006;-71
2021/11/02 10:19:57;;;;;;;1.35;0.50;;;12.90;75.30;;;;;;2324753;54;21013;-71
2021/11/02 10:24:09;;;;;;;1.60;0.50;;;13.00;74.70;;;;;;2352806;54;21506;-71
2021/11/02 10:26:41;;;;;;;1.25;0.45;;;13.00;74.80;;;;;;2356938;54;20939;-71
2021/11/02 10:32:40;;;;;;;1.30;0.57;;;13.00;74.50;;;;;;2337277;54;20949;-71
2021/11/02 10:35:35;;;;;;;1.80;0.50;;;13.00;73.30;;;;;;2569738;53;22595;-70
2021/11/02 10:38:13;;;;;;;1.08;0.50;;;13.00;73.40;;;;;;2329463;53;20949;-70
2021/11/02 10:40:53;;;;;;;1.00;0.50;;;13.00;73.80;;;;;;2314184;54;21025;-70
2021/11/02 10:43:47;;;;;;;1.73;0.43;;;13.00;74.10;;;;;;2342794;53;20958;-70
2021/11/02 10:46:14;;;;;;;1.05;0.50;;;13.00;74.10;;;;;;2346962;53;20933;-71
2021/11/02 10:48:50;;;;;;;1.73;0.60;;;13.00;74.70;;;;;;2336365;53;21056;-70
2021/11/02 10:51:35;;;;;;;3.78;0.80;;;13.00;74.50;;;;;;2345526;53;21064;-70
2021/11/02 10:56:11;;;;;;;2.42;0.80;;;13.00;74.70;;;;;;2579339;52;20965;-71
2021/11/02 10:59:23;;;;;;;1.77;0.60;;;13.10;75.00;;;;;;2544271;53;20957;-70
2021/11/02 11:01:52;;;;;;;1.50;0.60;;;13.20;74.70;;;;;;2571278;53;20957;-70
2021/11/02 11:04:20;;;;;;;1.55;0.65;;;13.20;75.30;;;;;;2338536;53;21007;-71
2021/11/02 11:06:48;;;;;;;1.85;0.70;;;13.20;75.40;;;;;;2340278;53;20940;-70
2021/11/02 11:09:14;;;;;;;3.37;0.73;;;13.30;75.70;;;;;;2596894;52;21009;-70
2021/11/02 11:11:45;;;;;;;1.67;0.60;;;13.30;75.70;;;;;;2571635;53;21449;-69
2021/11/02 11:14:15;;;;;;;2.05;0.70;;;13.40;75.80;;;;;;2369375;53;21124;-71
2021/11/02 11:16:49;;;;;;;1.37;0.50;;;13.50;76.00;;;;;;2620926;52;20970;-70
2021/11/02 11:19:36;;;;;;;1.65;0.50;;;13.50;76.00;;;;;;2607495;52;20951;-71
2021/11/02 11:22:03;;;;;;;1.95;0.50;;;13.60;75.60;;;;;;2361112;53;20950;-70
2021/11/02 11:25:02;;;;;;;1.85;0.62;;;13.70;76.00;;;;;;2349224;53;21013;-70
2021/11/02 11:27:28;;;;;;;1.00;0.50;;;13.70;75.30;;;;;;2369882;53;21796;-70
2021/11/02 11:30:05;;;;;;;1.62;0.50;;;13.90;75.80;;;;;;2359392;53;22031;-70
2021/11/02 11:32:34;;;;;;;0.88;0.40;;;13.80;75.20;;;;;;2362921;53;20962;-69
2021/11/02 11:35:04;;;;;;;1.70;0.55;;;13.90;75.40;;;;;;2569621;52;21122;-70
2021/11/02 11:37:36;;;;;;;2.10;0.50;;;13.90;75.00;;;;;;2351152;53;21000;-70
2021/11/02 11:40:05;;;;;;;;;;;13.90;74.60;;;;;;2599240;52;21646;-70
2021/11/02 11:42:32;;;;;;;1.55;0.50;;;14.00;73.90;;;;;;2365497;53;20186;-70
2021/11/02 11:45:14;;;;;;;1.37;0.50;;;14.00;74.60;;;;;;2334449;53;21026;-70
2021/11/02 11:47:40;;;;;;;1.77;0.73;;;14.00;74.40;;;;;;2621650;52;20941;-70
2021/11/02 11:50:25;;;;;;;2.00;0.50;;;14.00;74.40;;;;;;2621382;52;20953;-70
2021/11/02 11:52:53;;;;;;;1.73;0.60;;;14.00;73.80;;;;;;2619379;52;20950;-70
2021/11/02 11:55:25;;;;;;;1.55;0.60;;;14.00;74.20;;;;;;2369577;53;20985;-70
2021/11/02 11:58:34;;;;;;;1.05;0.52;;;14.00;74.10;;;;;;2369391;53;20934;-71
2021/11/02 12:01:23;;;;;;;2.05;0.60;;;14.00;73.70;;;;;;2369172;53;21053;-70
2021/11/02 12:04:48;;;;;;;1.00;0.47;;;14.00;73.40;;;;;;2573515;53;21513;-71
2021/11/02 12:07:32;;;;;;;2.15;0.60;;;14.00;73.50;;;;;;2603221;52;20983;-71
2021/11/02 12:10:09;;;;;;;1.25;0.55;;;13.90;73.80;;;;;;2349925;53;21416;-70
2021/11/02 12:12:36;;;;;;;1.17;0.50;;;13.90;74.00;;;;;;2618686;52;21466;-71
2021/11/02 12:15:08;;;;;;;0.88;0.43;;;13.90;74.20;;;;;;2350379;53;21041;-71
2021/11/02 12:17:39;;;;;;;0.75;0.30;;;14.00;74.10;;;;;;2336382;54;20971;-70
2021/11/02 12:20:11;;;;;;;0.90;0.30;;;14.00;74.00;;;;;;2356640;53;21039;-71
2021/11/02 12:24:02;;;;;;;0.73;0.30;;;14.00;73.80;;;;;;2608691;52;20951;-70
2021/11/02 12:26:47;;;;;;;1.85;0.35;;;14.00;72.70;;;;;;2365514;53;20938;-70
2021/11/02 12:29:23;;;;;;;1.40;0.50;;;14.00;73.40;;;;;;2367768;53;22489;-70
2021/11/02 12:32:03;;;;;;;1.45;0.50;;;14.00;74.00;;;;;;2349701;53;20925;-71
2021/11/02 12:35:42;;;;;;;1.20;0.52;;;14.00;74.50;;;;;;2588347;52;21437;-70
2021/11/02 12:38:12;;;;;;;0.65;0.40;;;14.10;74.80;;;;;;2369278;53;21038;-70
2021/11/02 12:40:40;;;;;;;1.00;0.40;;;14.20;76.60;;;;;;2340474;54;21482;-70
2021/11/02 12:43:29;;;;;;;1.52;0.62;;;14.30;77.40;;;;;;2345743;53;21574;-70
2021/11/02 12:45:59;;;;;;;1.55;0.60;;;14.50;77.40;;;;;;2336669;54;21899;-70
2021/11/02 12:48:26;;;;;;;3.17;1.35;;;14.60;77.10;;;;;;2373108;53;21042;-70
2021/11/02 12:51:05;;;;;;;2.97;1.27;;;14.80;76.50;;;;;;2612146;52;21087;-70
2021/11/02 12:53:37;;;;;;;1.58;0.60;;;14.80;75.70;;;;;;2353026;53;20973;-71
2021/11/02 12:56:16;;;;;;;1.60;0.68;;;14.90;74.90;;;;;;2356853;53;21636;-70
2021/11/02 12:58:43;;;;;;;1.45;0.50;;;14.90;73.20;;;;;;2594811;52;20927;-70
2021/11/02 13:01:10;;;;;;;1.42;0.60;;;14.90;73.40;;;;;;2578778;53;22117;-71
2021/11/02 13:03:42;;;;;;;1.12;0.40;;;14.90;73.30;;;;;;2349059;53;21053;-71
2021/11/02 13:06:09;;;;;;;0.88;0.30;;;15.00;73.20;;;;;;2359578;53;21539;-70
2021/11/02 13:08:41;;;;;;;1.25;0.40;;;14.90;73.20;;;;;;2608826;52;21558;-71
2021/11/02 13:11:09;;;;;;;1.05;0.40;;;14.90;72.70;;;;;;2620623;52;21020;-71
2021/11/02 13:14:03;;;;;;;1.25;0.60;;;14.90;72.70;;;;;;2621033;52;20926;-71
2021/11/02 13:16:30;;;;;;;1.37;0.50;;;14.90;72.00;;;;;;2369449;53;21022;-71
2021/11/02 13:18:56;;;;;;;1.37;0.50;;;14.90;72.90;;;;;;2369126;53;20976;-70
2021/11/02 13:21:36;;;;;;;2.47;0.95;;;14.80;72.90;;;;;;2335683;54;21745;-70
2021/11/02 13:24:16;;;;;;;1.37;0.60;;;14.80;72.40;;;;;;2349170;53;21023;-71
2021/11/02 13:26:44;;;;;;;1.70;0.50;;;14.80;72.60;;;;;;2341044;53;21017;-70
2021/11/02 13:29:16;;;;;;;1.12;0.47;;;14.80;73.20;;;;;;2607945;52;21019;-71
2021/11/02 13:31:43;;;;;;;0.70;0.37;;;14.80;72.90;;;;;;2585609;52;20946;-70
2021/11/02 13:34:16;;;;;;;1.25;0.40;;;14.80;73.20;;;;;;2599581;52;20938;-70
2021/11/02 13:36:43;;;;;;;0.68;0.40;;;14.80;73.00;;;;;;2337642;54;20932;-70
2021/11/02 13:39:12;;;;;;;1.23;0.40;;;14.80;73.10;;;;;;2617037;52;20910;-71
2021/11/02 13:41:59;;;;;;;1.37;0.50;;;14.80;73.10;;;;;;2621705;52;20930;-71
2021/11/02 13:44:28;;;;;;;1.08;0.50;;;14.90;72.50;;;;;;2369837;53;20957;-70
2021/11/02 13:46:55;;;;;;;2.45;0.82;;;14.80;73.20;;;;;;2347556;53;20945;-71
2021/11/02 13:49:22;;;;;;;1.20;0.45;;;14.80;73.30;;;;;;2352875;53;21846;-70
2021/11/02 13:51:50;;;;;;;0.95;0.35;;;14.90;73.30;;;;;;2621557;52;21530;-70
2021/11/02 13:54:18;;;;;;;1.55;0.55;;;14.80;73.10;;;;;;2344238;53;20953;-71
2021/11/02 13:56:46;;;;;;;2.90;0.90;;;14.80;73.20;;;;;;2355287;54;20925;-70
2021/11/02 13:59:13;;;;;;;1.75;0.55;;;14.80;73.30;;;;;;2369146;53;20949;-71
2021/11/02 14:01:50;;;;;;;1.55;0.60;;;14.80;73.50;;;;;;2348958;53;21475;-71
2021/11/02 14:04:27;;;;;;;1.12;0.47;;;14.80;72.90;;;;;;2365999;53;21054;-71
2021/11/02 14:07:36;;;;;;;1.65;0.52;;;14.80;73.60;;;;;;2339451;54;21015;-71
2021/11/02 14:10:09;;;;;;;0.65;0.30;;;14.90;73.70;;;;;;2348299;53;21412;-71
2021/11/02 14:12:53;;;;;;;1.50;0.60;;;14.90;75.50;;;;;;2349920;53;21033;-71
2021/11/02 14:15:23;;;;;;;0.85;0.40;;;15.00;74.80;;;;;;2369155;53;20954;-71
2021/11/02 14:18:14;;;;;;;0.88;0.40;;;15.10;75.50;;;;;;2353668;53;20963;-70
2021/11/02 14:20:55;;;;;;;1.20;0.50;;;15.10;73.80;;;;;;2343327;53;20960;-70
2021/11/02 14:23:36;;;;;;;0.95;0.40;;;15.20;73.10;;;;;;2326023;53;21441;-71
2021/11/02 14:26:26;;;;;;;1.30;0.50;;;15.20;72.70;;;;;;2315860;54;20983;-71
2021/11/02 14:28:56;;;;;;;1.15;0.45;;;15.20;72.20;;;;;;2336348;53;21000;-70
2021/11/02 14:36:38;;;;;;;1.48;0.40;;;15.20;72.90;;;;;;2359029;53;20946;-70
2021/11/02 14:39:08;;;;;;;2.15;0.60;;;15.10;71.10;;;;;;2352697;53;21003;-70
2021/11/02 14:41:35;;;;;;;1.87;0.60;;;15.00;71.60;;;;;;2342963;53;21039;-71
2021/11/02 14:45:58;;;;;;;1.40;0.52;;;15.00;71.70;;;;;;2604654;52;21763;-72
2021/11/02 14:48:48;;;;;;;0.77;0.30;;;14.90;70.40;;;;;;2368459;53;21814;-71
2021/11/02 14:51:33;;;;;;;1.15;0.40;;;14.80;70.60;;;;;;2350160;53;20963;-71
2021/11/02 14:54:19;;;;;;;1.08;0.32;;;14.80;70.80;;;;;;2593326;52;21072;-69
2021/11/02 14:56:46;;;;;;;1.35;0.45;;;14.80;70.90;;;;;;2344147;53;21008;-69
2021/11/02 14:59:15;;;;;;;1.87;0.47;;;14.70;71.90;;;;;;2340323;53;21004;-69
2021/11/02 15:02:33;;;;;;;3.28;0.55;;;14.70;72.10;;;;;;2345727;53;20937;-70
2021/11/02 15:05:04;;;;;;;2.00;0.52;;;14.60;71.00;;;;;;2319227;54;20913;-70
2021/11/02 15:07:35;;;;;;;2.45;0.37;;;14.60;72.40;;;;;;2345058;53;20979;-70
2021/11/02 15:10:12;;;;;;;1.87;0.40;;;14.60;72.30;;;;;;2320057;54;20969;-71
2021/11/02 15:12:39;;;;;;;1.62;0.50;;;14.60;71.30;;;;;;2332283;54;21039;-71
2021/11/02 15:15:07;;;;;;;2.03;0.68;;;14.60;71.80;;;;;;2338733;53;21004;-71
2021/11/02 15:17:34;;;;;;;2.80;1.00;;;14.60;72.10;;;;;;2369025;53;20993;-70
2021/11/02 15:20:22;;;;;;;1.50;0.60;;;14.50;71.90;;;;;;2369778;53;21487;-70
2021/11/02 15:22:48;;;;;;;1.65;0.47;;;14.50;71.60;;;;;;2356291;53;20939;-70
2021/11/02 15:25:15;;;;;;;1.58;0.50;;;14.50;71.70;;;;;;2361925;53;20961;-69
2021/11/02 15:27:44;;;;;;;1.70;0.50;;;14.50;71.50;;;;;;2369818;53;20926;-70
2021/11/02 15:30:13;;;;;;;2.22;0.50;;;14.50;71.50;;;;;;2593448;52;21003;-70
2021/11/02 15:32:46;;;;;;;1.90;0.60;;;14.40;71.30;;;;;;2369509;53;20999;-71
2021/11/02 15:35:14;;;;;;;2.37;0.70;;;14.40;70.80;;;;;;2369366;53;21029;-70
2021/11/02 15:37:52;;;;;;;2.60;0.77;;;14.40;71.40;;;;;;2369118;53;20978;-71
2021/11/02 15:40:21;;;;;;;1.50;0.50;;;14.40;71.10;;;;;;2351304;53;21469;-72
2021/11/02 15:42:51;;;;;;;1.85;0.60;;;14.40;71.40;;;;;;2369122;53;20962;-70
2021/11/02 15:45:35;;;;;;;1.15;0.50;;;14.30;70.80;;;;;;2343328;53;20984;-70
2021/11/02 15:48:12;;;;;;;1.10;0.40;;;14.30;71.10;;;;;;2578684;52;21515;-69
2021/11/02 15:50:45;;;;;;;1.20;0.40;;;14.30;70.60;;;;;;2586514;53;20987;-70
2021/11/02 15:53:11;;;;;;;2.45;0.50;;;14.30;71.20;;;;;;2339105;54;21273;-70
2021/11/02 15:55:38;;;;;;;1.52;0.62;;;14.30;71.40;;;;;;2360388;53;21793;-70
2021/11/02 15:58:06;;;;;;;1.30;0.50;;;14.20;71.40;;;;;;2371940;53;20942;-70
2021/11/02 16:00:35;;;;;;;1.45;0.50;;;14.20;71.30;;;;;;2594843;52;21005;-70
2021/11/02 16:03:01;;;;;;;1.15;0.40;;;14.20;71.20;;;;;;2335488;54;21015;-71
2021/11/02 16:05:34;;;;;;;2.83;0.62;;;14.10;71.10;;;;;;2615420;52;21014;-69
2021/11/02 16:08:14;;;;;;;1.33;0.50;;;14.10;71.00;;;;;;2370381;53;20970;-69
2021/11/02 16:10:40;;;;;;;0.90;0.40;;;14.10;70.90;;;;;;2592119;52;21828;-70
2021/11/02 16:13:08;;;;;;;1.83;0.40;;;14.00;70.90;;;;;;2366634;53;21030;-69
2021/11/02 16:15:38;;;;;;;1.35;0.52;;;14.00;70.90;;;;;;2601737;52;20955;-70
2021/11/02 16:18:06;;;;;;;1.50;0.50;;;14.00;71.10;;;;;;2621643;52;20986;-70
2021/11/02 16:20:35;;;;;;;1.52;0.50;;;14.00;71.10;;;;;;2579373;52;20972;-71
2021/11/02 16:23:04;;;;;;;1.90;0.68;;;14.00;71.10;;;;;;2593872;52;21797;-71
2021/11/02 16:25:49;;;;;;;2.08;0.82;;;14.00;71.30;;;;;;2359136;53;21005;-70
2021/11/02 16:28:20;;;;;;;1.75;0.70;;;13.90;71.00;;;;;;2611759;52;21522;-70
2021/11/02 16:30:53;;;;;;;2.05;0.80;;;13.90;71.00;;;;;;2600592;52;20949;-69
2021/11/02 16:33:36;;;;;;;2.00;0.70;;;13.80;71.00;;;;;;2351913;53;21471;-70
2021/11/02 16:36:27;;;;;;;1.55;0.60;;;13.80;70.80;;;;;;2593376;52;22033;-71
2021/11/02 16:39:41;;;;;;;2.90;0.80;;;13.80;70.50;;;;;;2366005;53;20962;-71
2021/11/02 16:42:08;;;;;;;2.12;0.60;;;13.70;71.10;;;;;;2622261;52;20971;-69
2021/11/02 16:44:37;;;;;;;1.58;0.50;;;13.70;71.30;;;;;;2345976;53;21061;-71
2021/11/02 16:47:13;;;;;;;1.25;0.50;;;13.70;71.50;;;;;;2592560;52;21536;-68
2021/11/02 16:49:39;;;;;;;2.40;0.57;;;13.70;71.00;;;;;;2340911;53;20968;-70
2021/11/02 16:52:08;;;;;;;1.67;0.60;;;13.70;71.60;;;;;;2585520;53;20972;-71
2021/11/02 16:54:44;;;;;;;1.62;0.70;;;13.70;71.70;;;;;;2317462;54;20956;-70
2021/11/02 16:57:24;;;;;;;1.75;0.70;;;13.60;71.50;;;;;;2571552;53;21028;-71
2021/11/02 16:59:55;;;;;;;3.55;1.23;;;13.60;71.60;;;;;;2341560;54;21031;-69
2021/11/02 17:03:04;;;;;;;5.07;1.75;;;13.60;71.60;;;;;;2561228;52;21016;-69
2021/11/02 17:05:36;;;;;;;3.55;1.40;;;13.60;70.80;;;;;;2584666;53;21787;-69
2021/11/02 17:08:12;;;;;;;3.47;1.27;;;13.60;71.60;;;;;;2581169;53;21546;-69
2021/11/02 17:10:39;;;;;;;2.45;0.98;;;13.60;71.40;;;;;;2303882;55;21017;-70
2021/11/02 17:13:19;;;;;;;2.00;0.90;;;13.60;71.70;;;;;;2590054;52;20944;-69
2021/11/02 17:15:59;;;;;;;1.37;0.57;;;13.60;71.40;;;;;;2330662;54;21005;-70
2021/11/02 17:19:12;;;;;;;1.37;0.60;;;13.50;71.30;;;;;;2575127;53;20914;-70
2021/11/02 17:21:39;;;;;;;2.45;0.82;;;13.50;71.70;;;;;;2339328;53;20956;-70
2021/11/02 17:24:07;;;;;;;2.53;0.80;;;13.50;71.70;;;;;;2340772;53;20952;-70
2021/11/02 17:26:35;;;;;;;2.35;0.80;;;13.50;71.70;;;;;;2586317;53;20980;-69
2021/11/02 17:29:05;;;;;;;2.15;0.73;;;13.40;71.50;;;;;;2344902;53;21863;-70
2021/11/02 17:31:37;;;;;;;1.83;0.80;;;13.40;71.60;;;;;;2319687;54;21897;-71
2021/11/02 17:34:11;;;;;;;2.10;0.70;;;13.40;71.50;;;;;;2339703;53;21035;-70
2021/11/02 17:36:38;;;;;;;3.08;0.90;;;13.40;71.70;;;;;;2340508;53;21378;-71
2021/11/02 17:39:07;;;;;;;2.10;0.90;;;13.40;72.00;;;;;;2582305;53;20932;-70
2021/11/02 17:41:34;;;;;;;3.67;1.02;;;13.40;72.00;;;;;;2345211;53;20947;-69
2021/11/02 17:44:00;;;;;;;2.87;0.88;;;13.30;71.90;;;;;;2587069;53;20917;-70
2021/11/02 17:46:32;;;;;;;3.25;1.40;;;13.30;72.00;;;;;;2340055;53;20962;-71
2021/11/02 17:49:00;;;;;;;5.70;3.10;;;13.30;71.90;;;;;;2345266;53;20923;-71
2021/11/02 17:51:28;;;;;;;5.40;2.22;;;13.30;72.10;;;;;;2341216;53;21483;-69
2021/11/02 17:53:56;;;;;;;3.33;1.92;;;13.30;72.10;;;;;;2587214;53;21965;-71
2021/11/02 17:56:22;;;;;;;2.92;1.20;;;13.30;72.00;;;;;;2587372;53;21024;-69
2021/11/02 17:58:50;;;;;;;2.45;1.20;;;13.20;71.90;;;;;;2341309;53;20913;-70
2021/11/02 18:01:17;;;;;;;2.05;0.90;;;13.20;71.90;;;;;;2587698;53;20966;-69
2021/11/02 18:03:45;;;;;;;2.22;1.02;;;13.20;71.80;;;;;;2555226;53;21821;-71
2021/11/02 18:06:11;;;;;;;2.90;0.90;;;13.20;71.80;;;;;;2339224;53;20947;-69
2021/11/02 18:08:40;;;;;;;2.05;0.75;;;13.10;71.70;;;;;;2598017;52;20982;-69
2021/11/02 18:11:06;;;;;;;1.80;0.80;;;13.10;71.70;;;;;;2588374;52;20971;-69
2021/11/02 18:13:34;;;;;;;2.08;0.68;;;13.10;71.80;;;;;;2338535;53;21005;-69
2021/11/02 18:16:01;;;;;;;2.12;0.70;;;13.10;71.80;;;;;;2599839;52;20934;-69
2021/11/02 18:18:29;;;;;;;2.28;0.70;;;13.10;71.90;;;;;;2574526;52;21149;-69
2021/11/02 18:20:58;;;;;;;2.35;0.68;;;13.00;72.00;;;;;;2354569;53;20937;-69
2021/11/02 18:23:25;;;;;;;2.72;0.85;;;13.00;72.00;;;;;;2566976;52;21005;-69
2021/11/02 18:25:52;;;;;;;2.37;0.90;;;13.00;72.20;;;;;;2339250;53;21436;-69
2021/11/02 18:28:20;;;;;;;1.67;0.70;;;13.00;72.20;;;;;;2621132;52;20945;-69
2021/11/02 18:30:47;;;;;;;3.60;0.80;;;13.00;72.20;;;;;;2344497;53;20950;-69
2021/11/02 18:33:14;;;;;;;5.45;1.62;;;13.00;72.20;;;;;;2567269;52;20936;-69
2021/11/02 18:35:40;;;;;;;5.85;2.15;;;13.00;72.30;;;;;;2338328;53;20980;-69
2021/11/02 18:38:07;;;;;;;3.22;1.55;;;13.00;72.40;;;;;;2617586;52;20935;-69
2021/11/02 18:40:36;;;;;;;2.87;1.25;;;13.00;72.40;;;;;;2363578;53;20972;-69
2021/11/02 18:43:03;;;;;;;3.95;1.00;;;12.90;72.40;;;;;;2327587;54;21012;-69
2021/11/02 18:45:29;;;;;;;2.65;0.93;;;13.00;72.40;;;;;;2345613;53;20939;-69
2021/11/02 18:48:00;;;;;;;1.73;0.70;;;12.90;72.40;;;;;;2594299;52;21008;-69
2021/11/02 18:50:31;;;;;;;2.03;0.70;;;13.00;72.60;;;;;;2594019;52;21436;-69
2021/11/02 18:53:00;;;;;;;1.98;0.70;;;12.90;72.60;;;;;;2596902;52;21013;-69
2021/11/02 18:55:29;;;;;;;2.90;0.88;;;12.90;72.60;;;;;;2358422;53;21016;-69
2021/11/02 18:57:55;;;;;;;2.40;0.73;;;13.00;72.70;;;;;;2356036;53;20938;-69
2021/11/02 19:00:22;;;;;;;1.80;0.75;;;13.00;72.80;;;;;;2567771;53;20969;-69
2021/11/02 19:03:11;;;;;;;1.58;0.65;;;12.90;72.80;;;;;;2346668;53;20931;-69
2021/11/02 19:05:41;;;;;;;1.85;0.68;;;13.00;72.80;;;;;;2348981;53;20998;-69
2021/11/02 19:08:14;;;;;;;2.37;0.70;;;13.00;72.90;;;;;;2569288;53;21789;-69
2021/11/02 19:10:41;;;;;;;2.30;0.80;;;13.00;72.80;;;;;;2358576;53;21532;-69
2021/11/02 19:13:08;;;;;;;6.97;2.45;;;13.00;73.10;;;;;;2619830;52;20977;-69
2021/11/02 19:15:34;;;;;;;15.60;7.70;;;13.00;73.10;;;;;;2590036;52;20981;-70
2021/11/02 19:18:01;;;;;;;16.45;7.93;;;13.00;73.10;;;;;;2621461;52;21442;-69
2021/11/02 19:20:27;;;;;;;11.45;5.28;;;13.00;73.10;;;;;;2346357;54;20953;-69
2021/11/02 19:22:54;;;;;;;7.43;3.60;;;13.10;73.30;;;;;;2573747;53;20977;-69
2021/11/02 19:25:20;;;;;;;5.05;2.25;;;13.10;73.30;;;;;;2352862;53;21012;-69
2021/11/02 19:27:47;;;;;;;4.90;1.80;;;13.10;73.30;;;;;;2337341;54;20993;-69
2021/11/02 19:30:16;;;;;;;3.25;1.17;;;13.10;73.30;;;;;;2357652;53;20977;-69
2021/11/02 19:32:43;;;;;;;3.37;1.15;;;13.10;73.20;;;;;;2609620;52;20956;-69
2021/11/02 19:35:09;;;;;;;2.03;0.93;;;13.10;73.20;;;;;;2351136;53;20946;-69
2021/11/02 19:37:36;;;;;;;1.83;0.70;;;13.10;73.20;;;;;;2619413;52;21063;-69
2021/11/02 19:40:04;;;;;;;2.70;0.80;;;13.10;73.10;;;;;;2621431;52;21399;-69
2021/11/02 19:42:30;;;;;;;2.12;0.80;;;13.10;73.00;;;;;;2351479;53;20952;-69
2021/11/02 19:45:00;;;;;;;2.53;0.93;;;13.20;73.10;;;;;;2581185;52;20955;-69
2021/11/02 19:47:26;;;;;;;1.52;0.60;;;13.10;72.90;;;;;;2582024;52;21090;-69
2021/11/02 19:49:54;;;;;;;1.83;0.70;;;13.10;72.90;;;;;;2332283;54;20941;-69
2021/11/02 19:52:21;;;;;;;1.50;0.62;;;13.10;73.50;;;;;;2365746;53;21014;-69
2021/11/02 19:54:56;;;;;;;1.42;0.50;;;13.10;72.80;;;;;;2368557;53;20962;-69
2021/11/02 19:57:24;;;;;;;1.98;0.62;;;13.10;72.50;;;;;;2601986;52;21031;-69
2021/11/02 19:59:50;;;;;;;2.42;0.60;;;13.10;72.90;;;;;;2576720;52;21450;-69